createdAt,value
2023-02-02T00:00:44.829Z,3.20
2023-02-02T00:05:55.497Z,3.30
2023-02-02T00:11:03.460Z,3.20
2023-02-02T00:16:34.004Z,3.20
2023-02-02T00:21:41.064Z,3.10
2023-02-02T00:26:52.396Z,3.10
2023-02-02T00:32:03.786Z,3.00
2023-02-02T00:42:34.359Z,3.00
2023-02-02T00:47:41.365Z,3.00
2023-02-02T00:52:49.968Z,2.80
2023-02-02T00:57:57.116Z,2.80
2023-02-02T01:03:05.005Z,2.80
2023-02-02T01:08:11.914Z,2.70
2023-02-02T01:13:19.085Z,2.70
2023-02-02T01:18:26.282Z,2.70
2023-02-02T01:23:34.267Z,2.70
2023-02-02T01:28:42.282Z,2.70
2023-02-02T01:33:51.870Z,2.70
2023-02-02T01:38:58.573Z,2.80
2023-02-02T01:44:08.033Z,2.70
2023-02-02T01:49:21.073Z,2.70
2023-02-02T01:54:32.003Z,2.60
2023-02-02T01:59:39.195Z,2.70
2023-02-02T02:04:46.259Z,2.60
2023-02-02T02:09:53.059Z,2.70
2023-02-02T02:15:17.444Z,2.70
2023-02-02T02:20:52.978Z,2.70
2023-02-02T02:26:36.546Z,2.70
2023-02-02T02:32:28.952Z,2.70
2023-02-02T02:37:57.755Z,2.60
2023-02-02T02:43:17.709Z,2.70
2023-02-02T02:48:24.360Z,2.70
2023-02-02T02:53:31.023Z,2.70
2023-02-02T02:58:53.768Z,2.70
2023-02-02T03:04:25.742Z,2.70
2023-02-02T03:09:36.342Z,2.80
2023-02-02T03:14:43.047Z,2.80
2023-02-02T03:19:49.712Z,2.80
2023-02-02T03:24:57.212Z,2.80
2023-02-02T03:30:04.330Z,2.80
2023-02-02T03:35:11.876Z,2.80
2023-02-02T03:40:18.979Z,2.80
2023-02-02T03:45:27.409Z,2.90
2023-02-02T03:50:34.913Z,2.80
2023-02-02T03:55:41.961Z,2.80
2023-02-02T04:00:48.635Z,2.90
2023-02-02T04:05:55.308Z,2.80
2023-02-02T04:11:02.111Z,2.90
2023-02-02T04:16:09.368Z,2.90
2023-02-02T04:21:16.645Z,2.90
2023-02-02T04:26:24.968Z,2.90
2023-02-02T04:31:32.232Z,2.90
2023-02-02T04:36:39.537Z,2.90
2023-02-02T04:41:46.270Z,2.80
2023-02-02T04:46:52.951Z,2.80
2023-02-02T04:51:59.638Z,2.80
2023-02-02T04:57:06.273Z,2.70
2023-02-02T05:02:12.964Z,2.70
2023-02-02T05:07:19.538Z,2.70
2023-02-02T05:12:26.219Z,2.60
2023-02-02T05:17:33.139Z,2.50
2023-02-02T05:22:39.730Z,2.50
2023-02-02T05:27:47.313Z,2.30
2023-02-02T05:32:53.893Z,2.30
2023-02-02T05:38:00.512Z,2.40
2023-02-02T05:43:07.193Z,2.30
2023-02-02T05:48:16.629Z,2.40
2023-02-02T05:53:23.333Z,2.30
2023-02-02T05:58:30.158Z,2.20
2023-02-02T06:03:37.028Z,2.10
2023-02-02T06:08:43.925Z,2.00
2023-02-02T06:13:50.959Z,1.90
2023-02-02T06:18:57.897Z,1.90
2023-02-02T06:24:04.736Z,1.70
2023-02-02T06:29:14.774Z,1.50
2023-02-02T06:34:21.471Z,1.30
2023-02-02T06:39:30.319Z,1.20
2023-02-02T06:44:37.286Z,1.20
2023-02-02T06:49:44.097Z,1.20
2023-02-02T06:54:50.796Z,1.20
2023-02-02T06:59:57.554Z,1.20
2023-02-02T07:05:05.535Z,1.20
2023-02-02T07:11:14.552Z,1.20
2023-02-02T07:15:21.356Z,1.40
2023-02-02T07:20:29.032Z,1.50
2023-02-02T07:25:35.996Z,1.60
2023-02-02T07:30:42.764Z,1.60
2023-02-02T07:35:49.620Z,1.70
2023-02-02T07:40:56.424Z,1.80
2023-02-02T07:46:06.785Z,1.70
2023-02-02T07:51:17.795Z,1.80
2023-02-02T07:56:28.550Z,1.70
2023-02-02T08:01:35.313Z,1.90
2023-02-02T08:06:42.631Z,1.80
2023-02-02T08:11:49.431Z,1.60
2023-02-02T08:16:56.160Z,1.60
2023-02-02T08:22:02.850Z,1.70
2023-02-02T08:27:11.443Z,1.70
2023-02-02T08:32:18.230Z,1.60
2023-02-02T08:37:24.858Z,1.70
2023-02-02T08:42:31.542Z,1.70
2023-02-02T08:47:38.265Z,1.90
2023-02-02T08:52:45.143Z,1.80
2023-02-02T08:57:51.909Z,1.80
2023-02-02T09:02:58.710Z,1.80
2023-02-02T09:08:05.753Z,1.70
2023-02-02T09:13:13.125Z,1.60
2023-02-02T09:18:19.987Z,1.80
2023-02-02T09:23:26.974Z,1.90
2023-02-02T09:28:34.280Z,2.00
2023-02-02T09:33:41.479Z,1.90
2023-02-02T09:38:50.002Z,2.00
2023-02-02T09:44:03.997Z,2.00
2023-02-02T09:49:14.744Z,2.20
2023-02-02T09:54:32.680Z,2.20
2023-02-02T09:59:43.111Z,2.20
2023-02-02T10:04:56.955Z,2.30
2023-02-02T10:10:05.554Z,2.30
2023-02-02T10:16:01.209Z,2.40
2023-02-02T10:21:17.192Z,2.50
2023-02-02T10:26:36.925Z,2.50
2023-02-02T10:32:19.295Z,2.50
2023-02-02T10:37:36.376Z,2.40
2023-02-02T10:42:52.094Z,2.60
2023-02-02T10:47:59.429Z,2.50
2023-02-02T10:53:10.598Z,2.60
2023-02-02T10:58:53.295Z,2.60
2023-02-02T11:04:17.879Z,2.50
2023-02-02T11:09:34.108Z,2.50
2023-02-02T11:14:50.963Z,2.50
2023-02-02T11:19:57.971Z,2.40
2023-02-02T11:25:33.175Z,2.50
2023-02-02T11:30:42.526Z,2.40
2023-02-02T11:35:58.650Z,2.50
2023-02-02T11:41:10.450Z,2.50
2023-02-02T11:46:29.999Z,2.50
2023-02-02T11:51:37.302Z,2.40
2023-02-02T11:56:46.644Z,2.40
2023-02-02T12:01:53.658Z,2.40
2023-02-02T12:07:00.307Z,2.40
2023-02-02T12:12:45.916Z,2.40
2023-02-02T12:18:05.902Z,2.70
2023-02-02T12:23:25.985Z,2.60
2023-02-02T12:29:01.035Z,2.70
2023-02-02T12:34:37.169Z,2.50
2023-02-02T12:40:06.570Z,2.60
2023-02-02T12:45:29.361Z,2.70
2023-02-02T12:51:17.769Z,2.60
2023-02-02T12:56:43.897Z,2.60
2023-02-02T13:02:21.880Z,2.40
2023-02-02T13:07:43.745Z,2.50
2023-02-02T13:13:00.830Z,2.50
2023-02-02T13:18:14.780Z,2.60
2023-02-02T13:23:40.827Z,2.50
2023-02-02T13:28:57.655Z,2.50
2023-02-02T13:34:26.379Z,2.40
2023-02-02T13:39:49.389Z,2.40
2023-02-02T13:45:03.221Z,2.30
2023-02-02T13:50:15.378Z,2.30
2023-02-02T13:56:02.298Z,2.20
2023-02-02T14:01:12.829Z,2.20
2023-02-02T14:06:23.187Z,2.20
2023-02-02T14:11:39.466Z,2.10
2023-02-02T14:17:02.037Z,2.10
2023-02-02T14:22:19.386Z,2.00
2023-02-02T14:27:39.212Z,2.00
2023-02-02T14:32:46.381Z,1.90
2023-02-02T14:38:14.071Z,2.00
2023-02-02T14:43:45.501Z,1.80
2023-02-02T14:48:59.444Z,1.80
2023-02-02T14:54:07.276Z,1.70
2023-02-02T14:59:27.099Z,1.70
2023-02-02T15:04:34.250Z,1.80
2023-02-02T15:09:41.669Z,1.90
2023-02-02T15:15:21.009Z,1.90
2023-02-02T15:20:41.331Z,1.70
2023-02-02T15:26:10.583Z,1.70
2023-02-02T15:31:37.300Z,1.80
2023-02-02T15:36:46.973Z,1.70
2023-02-02T15:42:16.058Z,1.70
2023-02-02T15:47:27.315Z,1.70
2023-02-02T15:52:36.871Z,1.70
2023-02-02T15:57:47.061Z,1.60
2023-02-02T16:03:13.667Z,1.60
2023-02-02T16:08:35.007Z,1.60
2023-02-02T16:13:43.496Z,1.50
2023-02-02T16:18:51.849Z,1.50
2023-02-02T16:23:59.750Z,1.60
2023-02-02T16:29:07.208Z,1.60
2023-02-02T16:34:46.341Z,1.70
2023-02-02T16:39:53.013Z,1.50
2023-02-02T16:45:01.590Z,1.50
2023-02-02T16:50:13.043Z,1.50
2023-02-02T16:55:21.867Z,1.50
2023-02-02T17:00:31.742Z,1.50
2023-02-02T17:05:54.390Z,1.50
2023-02-02T17:11:28.146Z,1.50
2023-02-02T17:16:34.980Z,1.50
2023-02-02T17:21:41.837Z,1.50
2023-02-02T17:26:48.561Z,1.50
2023-02-02T17:31:55.289Z,1.60
2023-02-02T17:37:02.057Z,1.60
2023-02-02T17:42:12.391Z,1.50
2023-02-02T17:47:19.048Z,1.60
2023-02-02T17:52:25.753Z,1.60
2023-02-02T17:57:32.780Z,1.60
2023-02-02T18:02:39.744Z,1.60
2023-02-02T18:07:46.557Z,1.60
2023-02-02T18:12:53.448Z,1.60
2023-02-02T18:18:01.763Z,1.60
2023-02-02T18:23:08.430Z,1.40
2023-02-02T18:28:17.585Z,1.40
2023-02-02T18:33:24.610Z,1.40
2023-02-02T18:38:31.401Z,1.50
2023-02-02T18:43:38.079Z,1.40
2023-02-02T18:48:45.987Z,1.50
2023-02-02T18:53:54.618Z,1.50
2023-02-02T18:59:02.006Z,1.40
2023-02-02T19:04:09.248Z,1.40
2023-02-02T19:09:17.765Z,1.50
2023-02-02T19:14:32.026Z,1.50
2023-02-02T19:19:40.516Z,1.50
2023-02-02T19:24:47.197Z,1.50
2023-02-02T19:29:59.411Z,1.50
2023-02-02T19:35:10.662Z,1.50
2023-02-02T19:40:25.963Z,1.50
2023-02-02T19:45:35.914Z,1.50
2023-02-02T19:50:43.198Z,1.50
2023-02-02T19:55:50.473Z,1.50
2023-02-02T20:00:59.634Z,1.50
2023-02-02T20:06:07.088Z,1.50
2023-02-02T20:11:37.124Z,1.50
2023-02-02T20:16:48.062Z,1.60
2023-02-02T20:21:56.196Z,1.50
2023-02-02T20:27:22.167Z,1.50
2023-02-02T20:32:43.170Z,1.50
2023-02-02T20:37:50.161Z,1.50
2023-02-02T20:42:58.620Z,1.50
2023-02-02T20:48:05.792Z,1.50
2023-02-02T20:53:14.197Z,1.50
2023-02-02T20:58:22.557Z,1.50
2023-02-02T21:03:29.780Z,1.50
2023-02-02T21:08:37.066Z,1.50
2023-02-02T21:13:44.241Z,1.50
2023-02-02T21:18:51.711Z,1.50
2023-02-02T21:23:58.880Z,1.50
2023-02-02T21:29:05.945Z,1.50
2023-02-02T21:34:13.495Z,1.50
2023-02-02T21:39:38.408Z,1.50
2023-02-02T21:45:00.461Z,1.50
2023-02-02T21:50:29.986Z,1.50
2023-02-02T21:55:39.120Z,1.40
2023-02-02T22:00:45.776Z,1.50
2023-02-02T22:05:53.312Z,1.40
2023-02-02T22:11:00.246Z,1.40
2023-02-02T22:16:10.171Z,1.50
2023-02-02T22:21:21.047Z,1.40
2023-02-02T22:26:32.703Z,1.40
2023-02-02T22:31:39.623Z,1.40
2023-02-02T22:36:46.731Z,1.50
2023-02-02T22:41:53.908Z,1.40
2023-02-02T22:47:00.788Z,1.50
2023-02-02T22:52:08.188Z,1.40
2023-02-02T22:57:15.261Z,1.40
2023-02-02T23:02:22.428Z,1.40
2023-02-02T23:07:29.258Z,1.30
2023-02-02T23:12:36.828Z,1.20
2023-02-02T23:17:44.637Z,1.30
2023-02-02T23:22:52.712Z,1.30
2023-02-02T23:27:59.729Z,1.30
2023-02-02T23:33:06.581Z,1.40
2023-02-02T23:38:14.573Z,1.40
2023-02-02T23:43:21.412Z,1.40
2023-02-02T23:48:28.538Z,1.40
2023-02-02T23:53:35.778Z,1.40
2023-02-02T23:58:43.052Z,1.30
